Gaz Unity — HOEJ — position and weather

sailwx.info

Track history (hours):
 
Tides and Currents Weather Stations Pressure Air Temp Water Temp Dewpoint Dewpoint Depression Visibility Wind Speed Wind Dir Waves Ship Positions

Gaz Unity

Last reported at 2016-May-01 04:18 UTC. Time now 2016-May-04 09:52 UTC.
Position N 35°47' E 014°57'.

Length 228 m; draft 10.5 m.

Type: Ship (hazmat cat C). MMSI: 353956000.

Date/timePositionNaut miles runAvg speedWind from/ knotsBaromVisibWave heightAir tempDewpointWater temp
2016-May-01 04:18N 35°47' E 014°57'0 0.0
2016-May-01 02:33N 35°47' E 014°57'0 0.0
2016-May-01 01:33N 35°47' E 014°57'0 0.0
2016-May-01 00:24N 35°47' E 014°57'0 0.0
2016-Apr-30 23:21N 35°47' E 014°57'0 0.0
2016-Apr-30 22:33N 35°47' E 014°57'0 0.0
2016-Apr-30 21:30N 35°47' E 014°57'0 0.0
2016-Apr-30 20:21N 35°47' E 014°57'0 0.0
2016-Apr-30 19:33N 35°47' E 014°57'0 0.0
2016-Apr-30 18:27N 35°47' E 014°57'0 0.0
2016-Apr-30 17:33N 35°47' E 014°57'0 0.0
2016-Apr-30 16:33N 35°47' E 014°57'0 0.0
2016-Apr-30 15:33N 35°47' E 014°57'0 0.0
2016-Apr-30 14:33N 35°47' E 014°57'0 0.0
2016-Apr-30 08:13N 35°47' E 014°57'3 0.4
2016-Apr-30 02:20N 35°45' E 014°55'0 0.0
2016-Apr-29 23:05N 35°45' E 014°55'0 0.0
2016-Apr-29 21:29N 35°45' E 014°55'0 0.0
2016-Apr-29 19:20N 35°45' E 014°55'0 0.0
2016-Apr-29 18:23N 35°45' E 014°55'0 0.0
2016-Apr-29 13:29N 35°45' E 014°55'0 0.0
2016-Apr-29 12:20N 35°45' E 014°55'0 0.0
2016-Apr-29 11:29N 35°45' E 014°55'0 0.0
2016-Apr-29 10:29N 35°45' E 014°55'0 0.0
2016-Apr-29 06:05N 35°45' E 014°55'0 0.0
2016-Apr-29 05:29N 35°45' E 014°55'0 0.0
2016-Apr-29 04:32N 35°45' E 014°55'0 0.0
2016-Apr-29 03:32N 35°45' E 014°55'0 0.0
2016-Apr-28 23:32N 35°45' E 014°55'0 0.0
2016-Apr-28 12:26N 35°45' E 014°55'0 0.0
2016-Apr-28 11:29N 35°45' E 014°55'0 0.0
2016-Apr-28 10:32N 35°45' E 014°55'0 0.0
2016-Apr-28 09:29N 35°45' E 014°55'0 0.0
2016-Apr-28 07:29N 35°45' E 014°55'0 0.0
2016-Apr-28 05:29N 35°45' E 014°55'0 0.0
2016-Apr-28 04:29N 35°45' E 014°55'0 0.0
2016-Apr-28 03:32N 35°45' E 014°55'0 0.0
2016-Apr-28 02:26N 35°45' E 014°55'0 0.0
2016-Apr-28 01:32N 35°45' E 014°55'0 0.0
2016-Apr-28 00:32N 35°45' E 014°55'0 0.0
2016-Apr-27 23:32N 35°45' E 014°55'0 0.0
2016-Apr-27 22:32N 35°45' E 014°55'0 0.0
2016-Apr-27 21:32N 35°45' E 014°55'0 0.0
2016-Apr-27 20:17N 35°45' E 014°55'10 1.0
2016-Apr-27 10:32N 35°51' E 015°05'0 0.0
2016-Apr-27 09:11N 35°51' E 015°05'0 0.2
2016-Apr-27 08:32N 35°51' E 015°05'4 3.8
2016-Apr-27 07:33N 35°50' E 015°09'2 2.4
2016-Apr-27 06:32N 35°49' E 015°12'1 1.2
2016-Apr-27 05:33N 35°48' E 015°11'4 1.0
2016-Apr-27 01:28N 35°46' E 015°07'  
2016-Apr-23 23:13N 35°45' E 014°55'0 0.0
2016-Apr-23 22:25N 35°45' E 014°55'0 0.0
2016-Apr-23 21:31N 35°45' E 014°55'0 0.0
2016-Apr-23 20:31N 35°45' E 014°55'0 0.0
2016-Apr-23 18:19N 35°45' E 014°55'0 0.0
2016-Apr-23 17:31N 35°45' E 014°55'0 0.0
2016-Apr-23 15:08N 35°45' E 014°55'12 1.6
2016-Apr-23 07:32N 35°34' E 014°49'1 0.5
2016-Apr-23 06:12N 35°34' E 014°50'1 0.6
2016-Apr-23 04:25N 35°35' E 014°51'1 0.5
2016-Apr-23 03:19N 35°35' E 014°51'0 0.6
2016-Apr-23 02:34N 35°35' E 014°52'1 0.5
2016-Apr-23 01:34N 35°35' E 014°52'1 0.4
2016-Apr-22 23:21N 35°36' E 014°53'0 0.5
2016-Apr-22 22:32N 35°36' E 014°54'1 0.5
2016-Apr-22 21:26N 35°36' E 014°54'1 0.6
2016-Apr-22 20:16N 35°36' E 014°55'1 0.9
2016-Apr-22 19:33N 35°36' E 014°56'1 0.8
2016-Apr-22 18:34N 35°36' E 014°57'1 0.7
2016-Apr-22 17:34N 35°36' E 014°58'1 1.0
2016-Apr-22 16:32N 35°36' E 014°59'1 1.2
2016-Apr-22 15:34N 35°36' E 015°01'2 1.6
2016-Apr-22 14:26N 35°37' E 014°59'5 5.2
2016-Apr-22 13:33N 35°40' E 014°55'  
Track history (hours):
 
Tides and Currents Weather Stations Pressure Air Temp Water Temp Dewpoint Dewpoint Depression Visibility Wind Speed Wind Dir Waves Ship Positions

Gaz Unity

Last reported at 2016-May-01 04:18 UTC. Time now 2016-May-04 09:52 UTC.
Position N 35°47' E 014°57'.

Length 228 m; draft 10.5 m.

Type: Ship (hazmat cat C). MMSI: 353956000.

Date/timePositionNaut miles runAvg speedWind from/ knotsBaromVisibWave heightAir tempDewpointWater temp
2016-May-01 04:18N 35°47' E 014°57'0 0.0
2016-May-01 02:33N 35°47' E 014°57'0 0.0
2016-May-01 01:33N 35°47' E 014°57'0 0.0
2016-May-01 00:24N 35°47' E 014°57'0 0.0
2016-Apr-30 23:21N 35°47' E 014°57'0 0.0
2016-Apr-30 22:33N 35°47' E 014°57'0 0.0
2016-Apr-30 21:30N 35°47' E 014°57'0 0.0
2016-Apr-30 20:21N 35°47' E 014°57'0 0.0
2016-Apr-30 19:33N 35°47' E 014°57'0 0.0
2016-Apr-30 18:27N 35°47' E 014°57'0 0.0
2016-Apr-30 17:33N 35°47' E 014°57'0 0.0
2016-Apr-30 16:33N 35°47' E 014°57'0 0.0
2016-Apr-30 15:33N 35°47' E 014°57'0 0.0
2016-Apr-30 14:33N 35°47' E 014°57'0 0.0
2016-Apr-30 08:13N 35°47' E 014°57'3 0.4
2016-Apr-30 02:20N 35°45' E 014°55'0 0.0
2016-Apr-29 23:05N 35°45' E 014°55'0 0.0
2016-Apr-29 21:29N 35°45' E 014°55'0 0.0
2016-Apr-29 19:20N 35°45' E 014°55'0 0.0
2016-Apr-29 18:23N 35°45' E 014°55'0 0.0
2016-Apr-29 13:29N 35°45' E 014°55'0 0.0
2016-Apr-29 12:20N 35°45' E 014°55'0 0.0
2016-Apr-29 11:29N 35°45' E 014°55'0 0.0
2016-Apr-29 10:29N 35°45' E 014°55'0 0.0
2016-Apr-29 06:05N 35°45' E 014°55'0 0.0
2016-Apr-29 05:29N 35°45' E 014°55'0 0.0
2016-Apr-29 04:32N 35°45' E 014°55'0 0.0
2016-Apr-29 03:32N 35°45' E 014°55'0 0.0
2016-Apr-28 23:32N 35°45' E 014°55'0 0.0
2016-Apr-28 12:26N 35°45' E 014°55'0 0.0
2016-Apr-28 11:29N 35°45' E 014°55'0 0.0
2016-Apr-28 10:32N 35°45' E 014°55'0 0.0
2016-Apr-28 09:29N 35°45' E 014°55'0 0.0
2016-Apr-28 07:29N 35°45' E 014°55'0 0.0
2016-Apr-28 05:29N 35°45' E 014°55'0 0.0
2016-Apr-28 04:29N 35°45' E 014°55'0 0.0
2016-Apr-28 03:32N 35°45' E 014°55'0 0.0
2016-Apr-28 02:26N 35°45' E 014°55'0 0.0
2016-Apr-28 01:32N 35°45' E 014°55'0 0.0
2016-Apr-28 00:32N 35°45' E 014°55'0 0.0
2016-Apr-27 23:32N 35°45' E 014°55'0 0.0
2016-Apr-27 22:32N 35°45' E 014°55'0 0.0
2016-Apr-27 21:32N 35°45' E 014°55'0 0.0
2016-Apr-27 20:17N 35°45' E 014°55'10 1.0
2016-Apr-27 10:32N 35°51' E 015°05'0 0.0
2016-Apr-27 09:11N 35°51' E 015°05'0 0.2
2016-Apr-27 08:32N 35°51' E 015°05'4 3.8
2016-Apr-27 07:33N 35°50' E 015°09'2 2.4
2016-Apr-27 06:32N 35°49' E 015°12'1 1.2
2016-Apr-27 05:33N 35°48' E 015°11'4 1.0
2016-Apr-27 01:28N 35°46' E 015°07'  
2016-Apr-23 23:13N 35°45' E 014°55'0 0.0
2016-Apr-23 22:25N 35°45' E 014°55'0 0.0
2016-Apr-23 21:31N 35°45' E 014°55'0 0.0
2016-Apr-23 20:31N 35°45' E 014°55'0 0.0
2016-Apr-23 18:19N 35°45' E 014°55'0 0.0
2016-Apr-23 17:31N 35°45' E 014°55'0 0.0
2016-Apr-23 15:08N 35°45' E 014°55'12 1.6
2016-Apr-23 07:32N 35°34' E 014°49'1 0.5
2016-Apr-23 06:12N 35°34' E 014°50'1 0.6
2016-Apr-23 04:25N 35°35' E 014°51'1 0.5
2016-Apr-23 03:19N 35°35' E 014°51'0 0.6
2016-Apr-23 02:34N 35°35' E 014°52'1 0.5
2016-Apr-23 01:34N 35°35' E 014°52'1 0.4
2016-Apr-22 23:21N 35°36' E 014°53'0 0.5
2016-Apr-22 22:32N 35°36' E 014°54'1 0.5
2016-Apr-22 21:26N 35°36' E 014°54'1 0.6
2016-Apr-22 20:16N 35°36' E 014°55'1 0.9
2016-Apr-22 19:33N 35°36' E 014°56'1 0.8
2016-Apr-22 18:34N 35°36' E 014°57'1 0.7
2016-Apr-22 17:34N 35°36' E 014°58'1 1.0
2016-Apr-22 16:32N 35°36' E 014°59'1 1.2
2016-Apr-22 15:34N 35°36' E 015°01'2 1.6
2016-Apr-22 14:26N 35°37' E 014°59'5 5.2
2016-Apr-22 13:33N 35°40' E 014°55'  

Dump ship's entire track history